Terminal Aerodrome Forecast
Issued by NWS Albuquerque, NM

Home | Current Version | Previous Version | Text Only | Print | Product List | Glossary On
Versions: 1 2 3 4 5 6 7 8 9 10 11 12 13 14 15
892
FTUS45 KABQ 191139
TAFABQ
TAF
KABQ 191139Z 1912/2012 09020G28KT P6SM FEW250
     FM191600 15020G28KT P6SM SCT250
     FM192100 16028G38KT P6SM SCT130
     FM200000 13038G48KT P6SM VCSH BKN070
     FM200500 13030G38KT P6SM SCT060=

USA.gov is the U.S. government's official web portal to all federal, state and local government web resources and services.